sensor_id;sensor_type;location;lat;lon;timestamp;P1;durP1;ratioP1;P2;durP2;ratioP2
13847;SDS011;6994;49.752;6.094;2024-02-21T00:01:24;11.40;;;5.85;;
13847;SDS011;6994;49.752;6.094;2024-02-21T00:03:52;13.95;;;5.28;;
13847;SDS011;6994;49.752;6.094;2024-02-21T00:06:19;11.57;;;5.05;;
13847;SDS011;6994;49.752;6.094;2024-02-21T00:08:47;10.50;;;4.28;;
13847;SDS011;6994;49.752;6.094;2024-02-21T00:11:15;11.38;;;6.95;;
13847;SDS011;6994;49.752;6.094;2024-02-21T00:13:42;9.35;;;4.57;;
13847;SDS011;6994;49.752;6.094;2024-02-21T00:16:09;8.30;;;4.32;;
13847;SDS011;6994;49.752;6.094;2024-02-21T00:18:37;7.57;;;4.32;;
13847;SDS011;6994;49.752;6.094;2024-02-21T00:21:05;12.37;;;6.55;;
13847;SDS011;6994;49.752;6.094;2024-02-21T00:23:32;9.38;;;5.32;;
13847;SDS011;6994;49.752;6.094;2024-02-21T00:26:00;10.52;;;5.43;;
13847;SDS011;6994;49.752;6.094;2024-02-21T00:28:27;11.02;;;4.82;;
13847;SDS011;6994;49.752;6.094;2024-02-21T00:30:54;13.88;;;5.37;;
13847;SDS011;6994;49.752;6.094;2024-02-21T00:33:21;10.82;;;4.53;;
13847;SDS011;6994;49.752;6.094;2024-02-21T00:35:48;12.68;;;5.15;;
13847;SDS011;6994;49.752;6.094;2024-02-21T00:38:16;13.35;;;5.50;;
13847;SDS011;6994;49.752;6.094;2024-02-21T00:40:43;10.57;;;4.72;;
13847;SDS011;6994;49.752;6.094;2024-02-21T00:43:10;12.10;;;5.80;;
13847;SDS011;6994;49.752;6.094;2024-02-21T00:45:37;11.45;;;4.87;;
13847;SDS011;6994;49.752;6.094;2024-02-21T00:48:04;11.70;;;4.85;;
13847;SDS011;6994;49.752;6.094;2024-02-21T00:50:32;10.30;;;4.80;;
13847;SDS011;6994;49.752;6.094;2024-02-21T00:52:59;12.98;;;5.07;;
13847;SDS011;6994;49.752;6.094;2024-02-21T00:55:27;15.00;;;4.85;;
13847;SDS011;6994;49.752;6.094;2024-02-21T00:57:54;10.27;;;6.12;;
13847;SDS011;6994;49.752;6.094;2024-02-21T01:00:21;12.23;;;4.90;;
13847;SDS011;6994;49.752;6.094;2024-02-21T01:02:49;8.63;;;4.70;;
13847;SDS011;6994;49.752;6.094;2024-02-21T01:05:16;10.80;;;5.15;;
13847;SDS011;6994;49.752;6.094;2024-02-21T01:07:44;9.27;;;4.93;;
13847;SDS011;6994;49.752;6.094;2024-02-21T01:10:11;13.43;;;7.40;;
13847;SDS011;6994;49.752;6.094;2024-02-21T01:12:38;10.23;;;5.45;;
13847;SDS011;6994;49.752;6.094;2024-02-21T01:15:05;12.27;;;4.97;;
13847;SDS011;6994;49.752;6.094;2024-02-21T01:17:32;12.98;;;5.32;;
13847;SDS011;6994;49.752;6.094;2024-02-21T01:20:00;14.73;;;6.78;;
13847;SDS011;6994;49.752;6.094;2024-02-21T01:22:27;11.27;;;4.87;;
13847;SDS011;6994;49.752;6.094;2024-02-21T01:24:54;15.45;;;6.85;;
13847;SDS011;6994;49.752;6.094;2024-02-21T01:27:21;9.90;;;4.80;;
13847;SDS011;6994;49.752;6.094;2024-02-21T01:29:48;11.70;;;4.75;;
13847;SDS011;6994;49.752;6.094;2024-02-21T01:32:16;12.32;;;4.82;;
13847;SDS011;6994;49.752;6.094;2024-02-21T01:34:43;11.20;;;5.47;;
13847;SDS011;6994;49.752;6.094;2024-02-21T01:37:11;11.48;;;4.62;;
13847;SDS011;6994;49.752;6.094;2024-02-21T01:39:39;11.85;;;3.62;;
13847;SDS011;6994;49.752;6.094;2024-02-21T01:42:06;11.40;;;5.70;;
13847;SDS011;6994;49.752;6.094;2024-02-21T01:44:33;7.75;;;4.85;;
13847;SDS011;6994;49.752;6.094;2024-02-21T01:47:01;11.63;;;5.25;;
13847;SDS011;6994;49.752;6.094;2024-02-21T01:49:28;8.60;;;4.22;;
13847;SDS011;6994;49.752;6.094;2024-02-21T01:51:56;9.60;;;4.82;;
13847;SDS011;6994;49.752;6.094;2024-02-21T01:54:23;9.35;;;4.43;;
13847;SDS011;6994;49.752;6.094;2024-02-21T01:56:50;13.43;;;4.78;;
13847;SDS011;6994;49.752;6.094;2024-02-21T01:59:17;12.13;;;4.97;;
13847;SDS011;6994;49.752;6.094;2024-02-21T02:01:44;10.07;;;4.80;;
13847;SDS011;6994;49.752;6.094;2024-02-21T02:04:12;9.98;;;5.10;;
13847;SDS011;6994;49.752;6.094;2024-02-21T02:06:39;10.45;;;4.18;;
13847;SDS011;6994;49.752;6.094;2024-02-21T02:09:06;14.38;;;5.68;;
13847;SDS011;6994;49.752;6.094;2024-02-21T02:11:33;11.60;;;5.28;;
13847;SDS011;6994;49.752;6.094;2024-02-21T02:14:00;9.65;;;4.18;;
13847;SDS011;6994;49.752;6.094;2024-02-21T02:16:28;18.65;;;4.05;;
13847;SDS011;6994;49.752;6.094;2024-02-21T02:18:55;17.35;;;4.43;;
13847;SDS011;6994;49.752;6.094;2024-02-21T02:21:26;8.13;;;3.92;;
13847;SDS011;6994;49.752;6.094;2024-02-21T02:23:50;14.27;;;4.57;;
13847;SDS011;6994;49.752;6.094;2024-02-21T02:26:17;16.42;;;4.43;;
13847;SDS011;6994;49.752;6.094;2024-02-21T02:28:45;46.72;;;4.47;;
13847;SDS011;6994;49.752;6.094;2024-02-21T02:31:13;19.23;;;4.43;;
13847;SDS011;6994;49.752;6.094;2024-02-21T02:33:44;14.87;;;3.65;;
13847;SDS011;6994;49.752;6.094;2024-02-21T02:36:11;13.48;;;4.28;;
13847;SDS011;6994;49.752;6.094;2024-02-21T02:38:38;11.98;;;3.47;;
13847;SDS011;6994;49.752;6.094;2024-02-21T02:41:05;20.37;;;3.33;;
13847;SDS011;6994;49.752;6.094;2024-02-21T02:43:33;8.80;;;3.97;;
13847;SDS011;6994;49.752;6.094;2024-02-21T02:46:00;9.20;;;3.58;;
13847;SDS011;6994;49.752;6.094;2024-02-21T02:48:27;8.25;;;3.72;;
13847;SDS011;6994;49.752;6.094;2024-02-21T02:50:54;7.97;;;3.12;;
13847;SDS011;6994;49.752;6.094;2024-02-21T02:53:21;8.15;;;3.67;;
13847;SDS011;6994;49.752;6.094;2024-02-21T02:55:49;5.82;;;3.53;;
13847;SDS011;6994;49.752;6.094;2024-02-21T02:58:16;5.93;;;2.95;;
13847;SDS011;6994;49.752;6.094;2024-02-21T03:00:43;9.82;;;4.18;;
13847;SDS011;6994;49.752;6.094;2024-02-21T03:03:10;11.05;;;3.33;;
13847;SDS011;6994;49.752;6.094;2024-02-21T03:05:37;7.62;;;3.37;;
13847;SDS011;6994;49.752;6.094;2024-02-21T03:08:05;10.60;;;3.45;;
13847;SDS011;6994;49.752;6.094;2024-02-21T03:10:35;4.78;;;2.92;;
13847;SDS011;6994;49.752;6.094;2024-02-21T03:12:59;8.98;;;3.22;;
13847;SDS011;6994;49.752;6.094;2024-02-21T03:15:26;7.10;;;2.92;;
13847;SDS011;6994;49.752;6.094;2024-02-21T03:17:53;10.40;;;3.40;;
13847;SDS011;6994;49.752;6.094;2024-02-21T03:20:21;6.95;;;3.20;;
13847;SDS011;6994;49.752;6.094;2024-02-21T03:22:49;7.50;;;3.28;;
13847;SDS011;6994;49.752;6.094;2024-02-21T03:25:17;9.68;;;2.67;;
13847;SDS011;6994;49.752;6.094;2024-02-21T03:27:44;13.40;;;3.65;;
13847;SDS011;6994;49.752;6.094;2024-02-21T03:30:12;7.82;;;3.37;;
13847;SDS011;6994;49.752;6.094;2024-02-21T03:32:39;12.27;;;3.58;;
13847;SDS011;6994;49.752;6.094;2024-02-21T03:35:06;7.03;;;3.03;;
13847;SDS011;6994;49.752;6.094;2024-02-21T03:37:33;11.45;;;4.25;;
13847;SDS011;6994;49.752;6.094;2024-02-21T03:40:00;7.82;;;3.45;;
13847;SDS011;6994;49.752;6.094;2024-02-21T03:42:28;9.82;;;3.90;;
13847;SDS011;6994;49.752;6.094;2024-02-21T03:44:55;15.20;;;3.80;;
13847;SDS011;6994;49.752;6.094;2024-02-21T03:47:22;9.55;;;4.07;;
13847;SDS011;6994;49.752;6.094;2024-02-21T03:49:49;13.05;;;3.80;;
13847;SDS011;6994;49.752;6.094;2024-02-21T03:52:16;10.27;;;4.25;;
13847;SDS011;6994;49.752;6.094;2024-02-21T03:54:44;13.35;;;4.03;;
13847;SDS011;6994;49.752;6.094;2024-02-21T03:57:11;7.55;;;3.35;;
13847;SDS011;6994;49.752;6.094;2024-02-21T03:59:38;4.50;;;3.37;;
13847;SDS011;6994;49.752;6.094;2024-02-21T04:02:05;5.10;;;2.50;;
13847;SDS011;6994;49.752;6.094;2024-02-21T04:04:34;9.02;;;3.15;;
13847;SDS011;6994;49.752;6.094;2024-02-21T04:07:03;8.82;;;2.97;;
13847;SDS011;6994;49.752;6.094;2024-02-21T04:09:33;7.00;;;3.25;;
13847;SDS011;6994;49.752;6.094;2024-02-21T04:12:00;7.90;;;3.20;;
13847;SDS011;6994;49.752;6.094;2024-02-21T04:14:27;12.13;;;3.60;;
13847;SDS011;6994;49.752;6.094;2024-02-21T04:16:55;7.53;;;2.33;;
13847;SDS011;6994;49.752;6.094;2024-02-21T04:19:22;7.95;;;3.22;;
13847;SDS011;6994;49.752;6.094;2024-02-21T04:21:49;8.23;;;3.47;;
13847;SDS011;6994;49.752;6.094;2024-02-21T04:24:17;10.13;;;3.70;;
13847;SDS011;6994;49.752;6.094;2024-02-21T04:26:44;9.93;;;3.62;;
13847;SDS011;6994;49.752;6.094;2024-02-21T04:29:11;10.10;;;3.30;;
13847;SDS011;6994;49.752;6.094;2024-02-21T04:31:39;9.07;;;3.47;;
13847;SDS011;6994;49.752;6.094;2024-02-21T04:34:06;11.68;;;3.35;;
13847;SDS011;6994;49.752;6.094;2024-02-21T04:36:33;8.90;;;4.28;;
13847;SDS011;6994;49.752;6.094;2024-02-21T04:39:00;12.40;;;3.72;;
13847;SDS011;6994;49.752;6.094;2024-02-21T04:41:27;7.93;;;3.55;;
13847;SDS011;6994;49.752;6.094;2024-02-21T04:43:55;7.82;;;3.67;;
13847;SDS011;6994;49.752;6.094;2024-02-21T04:46:22;9.07;;;4.25;;
13847;SDS011;6994;49.752;6.094;2024-02-21T04:48:49;7.78;;;3.22;;
13847;SDS011;6994;49.752;6.094;2024-02-21T04:51:16;7.05;;;3.37;;
13847;SDS011;6994;49.752;6.094;2024-02-21T04:53:43;12.40;;;3.22;;
13847;SDS011;6994;49.752;6.094;2024-02-21T04:56:11;8.65;;;3.35;;
13847;SDS011;6994;49.752;6.094;2024-02-21T04:58:38;7.20;;;3.03;;
13847;SDS011;6994;49.752;6.094;2024-02-21T05:01:05;10.85;;;3.22;;
13847;SDS011;6994;49.752;6.094;2024-02-21T05:03:32;9.98;;;2.97;;
13847;SDS011;6994;49.752;6.094;2024-02-21T05:05:59;8.60;;;2.60;;
13847;SDS011;6994;49.752;6.094;2024-02-21T05:08:27;11.25;;;3.60;;
13847;SDS011;6994;49.752;6.094;2024-02-21T05:10:54;8.98;;;3.08;;
13847;SDS011;6994;49.752;6.094;2024-02-21T05:13:22;9.38;;;4.03;;
13847;SDS011;6994;49.752;6.094;2024-02-21T05:15:50;11.68;;;3.97;;
13847;SDS011;6994;49.752;6.094;2024-02-21T05:18:18;11.07;;;2.97;;
13847;SDS011;6994;49.752;6.094;2024-02-21T05:20:46;7.68;;;2.70;;
13847;SDS011;6994;49.752;6.094;2024-02-21T05:23:14;9.27;;;3.78;;
13847;SDS011;6994;49.752;6.094;2024-02-21T05:25:42;11.60;;;3.72;;
13847;SDS011;6994;49.752;6.094;2024-02-21T05:28:10;5.22;;;2.55;;
13847;SDS011;6994;49.752;6.094;2024-02-21T05:30:37;5.90;;;2.78;;
13847;SDS011;6994;49.752;6.094;2024-02-21T05:33:05;11.55;;;3.33;;
13847;SDS011;6994;49.752;6.094;2024-02-21T05:35:33;7.35;;;2.90;;
13847;SDS011;6994;49.752;6.094;2024-02-21T05:38:00;7.18;;;2.92;;
13847;SDS011;6994;49.752;6.094;2024-02-21T05:40:27;7.72;;;3.15;;
13847;SDS011;6994;49.752;6.094;2024-02-21T05:42:54;7.62;;;3.30;;
13847;SDS011;6994;49.752;6.094;2024-02-21T05:45:22;5.43;;;2.47;;
13847;SDS011;6994;49.752;6.094;2024-02-21T05:47:49;7.95;;;3.70;;
13847;SDS011;6994;49.752;6.094;2024-02-21T05:50:17;4.37;;;2.55;;
13847;SDS011;6994;49.752;6.094;2024-02-21T05:52:44;6.00;;;2.40;;
13847;SDS011;6994;49.752;6.094;2024-02-21T05:55:11;6.70;;;3.53;;
13847;SDS011;6994;49.752;6.094;2024-02-21T05:57:38;7.62;;;3.10;;
13847;SDS011;6994;49.752;6.094;2024-02-21T06:00:06;7.90;;;3.67;;
13847;SDS011;6994;49.752;6.094;2024-02-21T06:02:33;9.13;;;3.20;;
13847;SDS011;6994;49.752;6.094;2024-02-21T06:05:00;9.90;;;3.83;;
13847;SDS011;6994;49.752;6.094;2024-02-21T06:07:27;9.30;;;3.47;;
13847;SDS011;6994;49.752;6.094;2024-02-21T06:09:55;7.12;;;3.25;;
13847;SDS011;6994;49.752;6.094;2024-02-21T06:12:22;7.72;;;3.22;;
13847;SDS011;6994;49.752;6.094;2024-02-21T06:14:49;9.05;;;3.35;;
13847;SDS011;6994;49.752;6.094;2024-02-21T06:17:16;8.98;;;3.70;;
13847;SDS011;6994;49.752;6.094;2024-02-21T06:19:43;6.03;;;3.33;;
13847;SDS011;6994;49.752;6.094;2024-02-21T06:22:11;10.57;;;3.78;;
13847;SDS011;6994;49.752;6.094;2024-02-21T06:24:38;9.13;;;3.20;;
13847;SDS011;6994;49.752;6.094;2024-02-21T06:27:05;7.10;;;2.90;;
13847;SDS011;6994;49.752;6.094;2024-02-21T06:29:32;6.53;;;3.08;;
13847;SDS011;6994;49.752;6.094;2024-02-21T06:31:59;4.28;;;2.70;;
13847;SDS011;6994;49.752;6.094;2024-02-21T06:34:27;8.10;;;2.90;;
13847;SDS011;6994;49.752;6.094;2024-02-21T06:36:54;6.30;;;2.83;;
13847;SDS011;6994;49.752;6.094;2024-02-21T06:39:21;11.18;;;3.55;;
13847;SDS011;6994;49.752;6.094;2024-02-21T06:41:49;8.20;;;2.97;;
13847;SDS011;6994;49.752;6.094;2024-02-21T06:44:19;5.18;;;2.85;;
13847;SDS011;6994;49.752;6.094;2024-02-21T06:46:46;8.32;;;3.08;;
13847;SDS011;6994;49.752;6.094;2024-02-21T06:49:14;6.80;;;3.03;;
13847;SDS011;6994;49.752;6.094;2024-02-21T06:51:42;8.70;;;2.60;;
13847;SDS011;6994;49.752;6.094;2024-02-21T06:54:09;7.07;;;3.47;;
13847;SDS011;6994;49.752;6.094;2024-02-21T06:56:36;5.53;;;2.70;;
13847;SDS011;6994;49.752;6.094;2024-02-21T06:59:03;11.90;;;3.50;;
13847;SDS011;6994;49.752;6.094;2024-02-21T07:01:31;7.40;;;3.20;;
13847;SDS011;6994;49.752;6.094;2024-02-21T07:03:59;9.25;;;3.08;;
13847;SDS011;6994;49.752;6.094;2024-02-21T07:06:27;8.55;;;2.60;;
13847;SDS011;6994;49.752;6.094;2024-02-21T07:08:54;7.18;;;2.90;;
13847;SDS011;6994;49.752;6.094;2024-02-21T07:11:22;4.60;;;3.20;;
13847;SDS011;6994;49.752;6.094;2024-02-21T07:13:49;8.32;;;3.55;;
13847;SDS011;6994;49.752;6.094;2024-02-21T07:16:17;4.05;;;2.67;;
13847;SDS011;6994;49.752;6.094;2024-02-21T07:18:45;5.30;;;2.75;;
13847;SDS011;6994;49.752;6.094;2024-02-21T07:21:13;13.30;;;2.97;;
13847;SDS011;6994;49.752;6.094;2024-02-21T07:23:41;6.45;;;2.92;;
13847;SDS011;6994;49.752;6.094;2024-02-21T07:26:09;6.65;;;3.22;;
13847;SDS011;6994;49.752;6.094;2024-02-21T07:28:37;5.40;;;2.33;;
13847;SDS011;6994;49.752;6.094;2024-02-21T07:31:05;4.72;;;2.42;;
13847;SDS011;6994;49.752;6.094;2024-02-21T07:33:32;4.57;;;3.03;;
13847;SDS011;6994;49.752;6.094;2024-02-21T07:35:59;8.00;;;3.03;;
13847;SDS011;6994;49.752;6.094;2024-02-21T07:38:26;6.22;;;3.15;;
13847;SDS011;6994;49.752;6.094;2024-02-21T07:40:53;7.12;;;3.30;;
13847;SDS011;6994;49.752;6.094;2024-02-21T07:43:21;8.10;;;3.53;;
13847;SDS011;6994;49.752;6.094;2024-02-21T07:45:48;9.10;;;3.50;;
13847;SDS011;6994;49.752;6.094;2024-02-21T07:48:15;8.00;;;4.50;;
13847;SDS011;6994;49.752;6.094;2024-02-21T07:50:42;8.85;;;3.78;;
13847;SDS011;6994;49.752;6.094;2024-02-21T07:53:09;7.93;;;4.10;;
13847;SDS011;6994;49.752;6.094;2024-02-21T07:55:37;10.35;;;4.20;;
13847;SDS011;6994;49.752;6.094;2024-02-21T07:58:04;10.05;;;3.83;;
13847;SDS011;6994;49.752;6.094;2024-02-21T08:00:31;6.07;;;3.72;;
13847;SDS011;6994;49.752;6.094;2024-02-21T08:02:58;6.80;;;3.50;;
13847;SDS011;6994;49.752;6.094;2024-02-21T08:05:25;8.30;;;3.65;;
13847;SDS011;6994;49.752;6.094;2024-02-21T08:07:53;8.45;;;3.03;;
13847;SDS011;6994;49.752;6.094;2024-02-21T08:10:20;8.32;;;3.65;;
13847;SDS011;6994;49.752;6.094;2024-02-21T08:12:47;9.55;;;3.83;;
13847;SDS011;6994;49.752;6.094;2024-02-21T08:15:15;10.25;;;4.03;;
13847;SDS011;6994;49.752;6.094;2024-02-21T08:17:42;7.37;;;3.50;;
13847;SDS011;6994;49.752;6.094;2024-02-21T08:20:10;7.68;;;4.75;;
13847;SDS011;6994;49.752;6.094;2024-02-21T08:22:37;12.50;;;4.00;;
13847;SDS011;6994;49.752;6.094;2024-02-21T08:25:04;6.85;;;3.92;;
13847;SDS011;6994;49.752;6.094;2024-02-21T08:27:31;11.45;;;3.70;;
13847;SDS011;6994;49.752;6.094;2024-02-21T08:29:59;9.23;;;4.55;;
13847;SDS011;6994;49.752;6.094;2024-02-21T08:32:26;5.55;;;3.12;;
13847;SDS011;6994;49.752;6.094;2024-02-21T08:34:53;10.32;;;4.65;;
13847;SDS011;6994;49.752;6.094;2024-02-21T08:37:20;6.40;;;3.28;;
13847;SDS011;6994;49.752;6.094;2024-02-21T08:39:47;10.93;;;3.90;;
13847;SDS011;6994;49.752;6.094;2024-02-21T08:42:15;12.52;;;3.72;;
13847;SDS011;6994;49.752;6.094;2024-02-21T08:44:42;10.13;;;3.90;;
13847;SDS011;6994;49.752;6.094;2024-02-21T08:47:09;8.35;;;4.10;;
13847;SDS011;6994;49.752;6.094;2024-02-21T08:49:37;5.90;;;3.25;;
13847;SDS011;6994;49.752;6.094;2024-02-21T08:52:04;10.15;;;3.90;;
13847;SDS011;6994;49.752;6.094;2024-02-21T08:54:31;9.10;;;3.70;;
13847;SDS011;6994;49.752;6.094;2024-02-21T08:56:59;8.35;;;3.97;;
13847;SDS011;6994;49.752;6.094;2024-02-21T08:59:26;5.45;;;3.60;;
13847;SDS011;6994;49.752;6.094;2024-02-21T09:01:53;6.82;;;3.75;;
13847;SDS011;6994;49.752;6.094;2024-02-21T09:04:21;8.90;;;3.97;;
13847;SDS011;6994;49.752;6.094;2024-02-21T09:06:49;8.57;;;3.90;;
13847;SDS011;6994;49.752;6.094;2024-02-21T09:09:17;9.45;;;3.65;;
13847;SDS011;6994;49.752;6.094;2024-02-21T09:11:45;7.37;;;3.65;;
13847;SDS011;6994;49.752;6.094;2024-02-21T09:14:13;8.30;;;3.97;;
13847;SDS011;6994;49.752;6.094;2024-02-21T09:16:41;9.75;;;4.18;;
13847;SDS011;6994;49.752;6.094;2024-02-21T09:19:09;8.02;;;3.67;;
13847;SDS011;6994;49.752;6.094;2024-02-21T09:21:39;8.40;;;4.40;;
13847;SDS011;6994;49.752;6.094;2024-02-21T09:24:06;8.85;;;3.42;;
13847;SDS011;6994;49.752;6.094;2024-02-21T09:26:33;8.13;;;4.72;;
13847;SDS011;6994;49.752;6.094;2024-02-21T09:29:01;7.10;;;3.65;;
13847;SDS011;6994;49.752;6.094;2024-02-21T09:31:28;8.00;;;4.03;;
13847;SDS011;6994;49.752;6.094;2024-02-21T09:33:55;4.78;;;3.12;;
13847;SDS011;6994;49.752;6.094;2024-02-21T09:36:22;8.93;;;2.80;;
13847;SDS011;6994;49.752;6.094;2024-02-21T09:38:50;7.07;;;2.62;;
13847;SDS011;6994;49.752;6.094;2024-02-21T09:41:18;8.70;;;3.17;;
13847;SDS011;6994;49.752;6.094;2024-02-21T09:43:46;6.07;;;2.60;;
13847;SDS011;6994;49.752;6.094;2024-02-21T09:46:16;5.80;;;2.72;;
13847;SDS011;6994;49.752;6.094;2024-02-21T09:48:53;4.82;;;2.97;;
13847;SDS011;6994;49.752;6.094;2024-02-21T09:51:29;6.35;;;2.30;;
13847;SDS011;6994;49.752;6.094;2024-02-21T09:53:56;8.00;;;2.53;;
13847;SDS011;6994;49.752;6.094;2024-02-21T09:56:23;7.47;;;3.35;;
13847;SDS011;6994;49.752;6.094;2024-02-21T09:58:50;9.52;;;3.30;;
13847;SDS011;6994;49.752;6.094;2024-02-21T10:01:17;10.52;;;4.28;;
13847;SDS011;6994;49.752;6.094;2024-02-21T10:03:45;7.53;;;3.78;;
13847;SDS011;6994;49.752;6.094;2024-02-21T10:06:12;9.45;;;3.42;;
13847;SDS011;6994;49.752;6.094;2024-02-21T10:08:39;6.00;;;3.53;;
13847;SDS011;6994;49.752;6.094;2024-02-21T10:11:06;7.05;;;3.35;;
13847;SDS011;6994;49.752;6.094;2024-02-21T10:13:35;4.65;;;2.75;;
13847;SDS011;6994;49.752;6.094;2024-02-21T10:16:07;8.75;;;3.95;;
13847;SDS011;6994;49.752;6.094;2024-02-21T10:18:34;5.93;;;3.00;;
13847;SDS011;6994;49.752;6.094;2024-02-21T10:21:08;9.32;;;3.65;;
13847;SDS011;6994;49.752;6.094;2024-02-21T10:23:41;8.77;;;3.15;;
13847;SDS011;6994;49.752;6.094;2024-02-21T10:26:08;8.73;;;3.15;;
13847;SDS011;6994;49.752;6.094;2024-02-21T10:28:36;10.43;;;2.65;;
13847;SDS011;6994;49.752;6.094;2024-02-21T10:31:03;10.20;;;3.30;;
13847;SDS011;6994;49.752;6.094;2024-02-21T10:33:31;3.40;;;1.92;;
13847;SDS011;6994;49.752;6.094;2024-02-21T10:36:05;5.85;;;3.03;;
13847;SDS011;6994;49.752;6.094;2024-02-21T10:38:25;8.38;;;2.80;;
13847;SDS011;6994;49.752;6.094;2024-02-21T10:40:53;6.32;;;2.28;;
13847;SDS011;6994;49.752;6.094;2024-02-21T10:43:20;8.07;;;2.78;;
13847;SDS011;6994;49.752;6.094;2024-02-21T10:45:47;2.92;;;1.90;;
13847;SDS011;6994;49.752;6.094;2024-02-21T10:48:15;6.18;;;2.70;;
13847;SDS011;6994;49.752;6.094;2024-02-21T10:51:00;6.70;;;2.25;;
13847;SDS011;6994;49.752;6.094;2024-02-21T10:56:12;7.25;;;1.77;;
13847;SDS011;6994;49.752;6.094;2024-02-21T10:58:38;11.77;;;1.92;;
13847;SDS011;6994;49.752;6.094;2024-02-21T11:01:05;7.68;;;1.92;;
13847;SDS011;6994;49.752;6.094;2024-02-21T11:03:32;3.25;;;1.90;;
13847;SDS011;6994;49.752;6.094;2024-02-21T11:05:59;5.75;;;2.22;;
13847;SDS011;6994;49.752;6.094;2024-02-21T11:08:27;6.35;;;2.33;;
13847;SDS011;6994;49.752;6.094;2024-02-21T11:10:58;6.62;;;1.87;;
13847;SDS011;6994;49.752;6.094;2024-02-21T11:13:32;6.45;;;1.83;;
13847;SDS011;6994;49.752;6.094;2024-02-21T11:16:08;6.07;;;2.42;;
13847;SDS011;6994;49.752;6.094;2024-02-21T11:18:35;7.45;;;2.33;;
13847;SDS011;6994;49.752;6.094;2024-02-21T11:21:01;4.65;;;2.20;;
13847;SDS011;6994;49.752;6.094;2024-02-21T11:23:29;7.90;;;2.80;;
13847;SDS011;6994;49.752;6.094;2024-02-21T11:26:06;7.25;;;2.90;;
13847;SDS011;6994;49.752;6.094;2024-02-21T11:28:33;3.37;;;2.10;;
13847;SDS011;6994;49.752;6.094;2024-02-21T11:31:10;9.25;;;3.10;;
13847;SDS011;6994;49.752;6.094;2024-02-21T11:33:39;2.90;;;1.77;;
13847;SDS011;6994;49.752;6.094;2024-02-21T11:36:04;6.68;;;2.17;;
13847;SDS011;6994;49.752;6.094;2024-02-21T11:38:31;5.90;;;2.05;;
13847;SDS011;6994;49.752;6.094;2024-02-21T11:40:59;6.53;;;2.87;;
13847;SDS011;6994;49.752;6.094;2024-02-21T11:43:26;3.90;;;1.85;;
13847;SDS011;6994;49.752;6.094;2024-02-21T11:46:00;4.37;;;2.00;;
13847;SDS011;6994;49.752;6.094;2024-02-21T11:48:27;3.83;;;2.30;;
13847;SDS011;6994;49.752;6.094;2024-02-21T11:50:54;4.40;;;2.17;;
13847;SDS011;6994;49.752;6.094;2024-02-21T11:53:21;4.60;;;2.08;;
13847;SDS011;6994;49.752;6.094;2024-02-21T11:55:49;4.75;;;2.08;;
13847;SDS011;6994;49.752;6.094;2024-02-21T11:58:16;8.55;;;2.20;;
13847;SDS011;6994;49.752;6.094;2024-02-21T12:00:43;7.43;;;2.60;;
13847;SDS011;6994;49.752;6.094;2024-02-21T12:03:10;7.57;;;3.17;;
13847;SDS011;6994;49.752;6.094;2024-02-21T12:05:37;7.53;;;2.58;;
13847;SDS011;6994;49.752;6.094;2024-02-21T12:08:05;5.95;;;3.25;;
13847;SDS011;6994;49.752;6.094;2024-02-21T12:10:32;6.47;;;2.83;;
13847;SDS011;6994;49.752;6.094;2024-02-21T12:13:06;3.67;;;2.35;;
13847;SDS011;6994;49.752;6.094;2024-02-21T12:15:33;7.05;;;2.22;;
13847;SDS011;6994;49.752;6.094;2024-02-21T12:18:00;7.68;;;2.42;;
13847;SDS011;6994;49.752;6.094;2024-02-21T12:20:27;4.45;;;1.98;;
13847;SDS011;6994;49.752;6.094;2024-02-21T12:22:55;8.18;;;2.20;;
13847;SDS011;6994;49.752;6.094;2024-02-21T12:25:22;4.62;;;2.10;;
13847;SDS011;6994;49.752;6.094;2024-02-21T12:27:50;7.20;;;2.53;;
13847;SDS011;6994;49.752;6.094;2024-02-21T12:30:18;4.65;;;1.90;;
13847;SDS011;6994;49.752;6.094;2024-02-21T12:32:46;4.95;;;2.50;;
13847;SDS011;6994;49.752;6.094;2024-02-21T12:35:12;6.28;;;2.33;;
13847;SDS011;6994;49.752;6.094;2024-02-21T12:37:40;5.55;;;2.08;;
13847;SDS011;6994;49.752;6.094;2024-02-21T12:40:08;4.53;;;1.90;;
13847;SDS011;6994;49.752;6.094;2024-02-21T12:42:35;4.45;;;1.83;;
13847;SDS011;6994;49.752;6.094;2024-02-21T12:45:03;6.18;;;2.53;;
13847;SDS011;6994;49.752;6.094;2024-02-21T12:47:30;4.68;;;2.35;;
13847;SDS011;6994;49.752;6.094;2024-02-21T12:49:58;5.95;;;1.98;;
13847;SDS011;6994;49.752;6.094;2024-02-21T12:52:25;7.18;;;2.25;;
13847;SDS011;6994;49.752;6.094;2024-02-21T12:54:52;9.95;;;2.30;;
13847;SDS011;6994;49.752;6.094;2024-02-21T12:57:20;4.65;;;2.25;;
13847;SDS011;6994;49.752;6.094;2024-02-21T12:59:47;5.82;;;2.45;;
13847;SDS011;6994;49.752;6.094;2024-02-21T13:02:14;6.70;;;2.30;;
13847;SDS011;6994;49.752;6.094;2024-02-21T13:04:41;4.85;;;2.33;;
13847;SDS011;6994;49.752;6.094;2024-02-21T13:07:09;3.20;;;1.55;;
13847;SDS011;6994;49.752;6.094;2024-02-21T13:09:36;6.57;;;1.95;;
13847;SDS011;6994;49.752;6.094;2024-02-21T13:12:04;5.03;;;1.48;;
13847;SDS011;6994;49.752;6.094;2024-02-21T13:14:31;10.40;;;1.92;;
13847;SDS011;6994;49.752;6.094;2024-02-21T13:16:58;5.37;;;2.17;;
13847;SDS011;6994;49.752;6.094;2024-02-21T13:19:25;5.85;;;1.85;;
13847;SDS011;6994;49.752;6.094;2024-02-21T13:21:53;9.88;;;2.17;;
13847;SDS011;6994;49.752;6.094;2024-02-21T13:24:20;1.98;;;1.50;;
13847;SDS011;6994;49.752;6.094;2024-02-21T13:26:47;7.55;;;1.90;;
13847;SDS011;6994;49.752;6.094;2024-02-21T13:29:14;2.85;;;1.48;;
13847;SDS011;6994;49.752;6.094;2024-02-21T13:31:41;5.70;;;2.03;;
13847;SDS011;6994;49.752;6.094;2024-02-21T13:34:09;5.57;;;1.60;;
13847;SDS011;6994;49.752;6.094;2024-02-21T13:36:37;3.53;;;1.87;;
13847;SDS011;6994;49.752;6.094;2024-02-21T13:39:05;3.15;;;1.42;;
13847;SDS011;6994;49.752;6.094;2024-02-21T13:41:32;5.45;;;1.45;;
13847;SDS011;6994;49.752;6.094;2024-02-21T13:43:59;4.68;;;1.87;;
13847;SDS011;6994;49.752;6.094;2024-02-21T13:46:26;4.75;;;1.77;;
13847;SDS011;6994;49.752;6.094;2024-02-21T13:48:54;4.95;;;2.20;;
13847;SDS011;6994;49.752;6.094;2024-02-21T13:51:21;6.90;;;2.22;;
13847;SDS011;6994;49.752;6.094;2024-02-21T13:53:48;5.15;;;1.85;;
13847;SDS011;6994;49.752;6.094;2024-02-21T13:56:15;5.45;;;1.40;;
13847;SDS011;6994;49.752;6.094;2024-02-21T13:58:42;2.47;;;1.55;;
13847;SDS011;6994;49.752;6.094;2024-02-21T14:01:10;6.22;;;2.08;;
13847;SDS011;6994;49.752;6.094;2024-02-21T14:03:37;3.50;;;1.45;;
13847;SDS011;6994;49.752;6.094;2024-02-21T14:06:05;6.85;;;2.12;;
13847;SDS011;6994;49.752;6.094;2024-02-21T14:08:32;6.28;;;2.58;;
13847;SDS011;6994;49.752;6.094;2024-02-21T14:10:59;4.45;;;1.55;;
13847;SDS011;6994;49.752;6.094;2024-02-21T14:13:26;8.63;;;2.22;;
13847;SDS011;6994;49.752;6.094;2024-02-21T14:15:53;5.32;;;1.58;;
13847;SDS011;6994;49.752;6.094;2024-02-21T14:18:21;5.20;;;2.20;;
13847;SDS011;6994;49.752;6.094;2024-02-21T14:20:49;5.22;;;1.90;;
13847;SDS011;6994;49.752;6.094;2024-02-21T14:23:17;5.72;;;1.95;;
13847;SDS011;6994;49.752;6.094;2024-02-21T14:25:45;5.70;;;2.67;;
13847;SDS011;6994;49.752;6.094;2024-02-21T14:28:13;4.12;;;1.73;;
13847;SDS011;6994;49.752;6.094;2024-02-21T14:30:40;2.92;;;1.77;;
13847;SDS011;6994;49.752;6.094;2024-02-21T14:33:07;4.97;;;2.05;;
13847;SDS011;6994;49.752;6.094;2024-02-21T14:35:34;4.82;;;1.80;;
13847;SDS011;6994;49.752;6.094;2024-02-21T14:38:01;5.03;;;1.87;;
13847;SDS011;6994;49.752;6.094;2024-02-21T14:40:29;7.78;;;2.28;;
13847;SDS011;6994;49.752;6.094;2024-02-21T14:42:56;3.55;;;1.92;;
13847;SDS011;6994;49.752;6.094;2024-02-21T14:45:23;3.70;;;1.90;;
13847;SDS011;6994;49.752;6.094;2024-02-21T14:47:50;6.28;;;2.10;;
13847;SDS011;6994;49.752;6.094;2024-02-21T14:50:17;6.72;;;1.35;;
13847;SDS011;6994;49.752;6.094;2024-02-21T14:52:45;5.15;;;2.42;;
13847;SDS011;6994;49.752;6.094;2024-02-21T14:55:13;2.65;;;1.40;;
13847;SDS011;6994;49.752;6.094;2024-02-21T14:57:40;3.80;;;1.90;;
13847;SDS011;6994;49.752;6.094;2024-02-21T15:00:07;5.37;;;2.00;;
13847;SDS011;6994;49.752;6.094;2024-02-21T15:02:34;3.00;;;1.27;;